Time;durP1;ratioP1;P1;durP2;ratioP2;P2;SDS_P1;SDS_P2;PMS_P1;PMS_P2;Temp;Humidity;BMP_temperature;BMP_pressure;BME280_temperature;BME280_humidity;BME280_pressure;Samples;Min_cycle;Max_cycle;Signal;HPM_P1;HPM_P2
2023/04/17 00:01:04;;;;;;;48.28;31.25;;;13.30;63.50;;;;;;4945420;28;20062;-46
2023/04/17 00:03:31;;;;;;;48.05;30.35;;;13.30;63.60;;;;;;4945374;28;20062;-53
2023/04/17 00:06:00;;;;;;;49.80;28.40;;;13.30;63.60;;;;;;4945020;28;20054;-50
2023/04/17 00:08:27;;;;;;;54.28;31.48;;;13.30;63.80;;;;;;4945921;28;20812;-48
2023/04/17 00:10:54;;;;;;;57.53;31.45;;;13.20;63.90;;;;;;4945747;28;20058;-51
2023/04/17 00:13:21;;;;;;;51.95;30.48;;;13.20;64.00;;;;;;4946452;28;20050;-47
2023/04/17 00:15:48;;;;;;;51.50;29.83;;;13.20;64.00;;;;;;4946317;28;20470;-48
2023/04/17 00:18:15;;;;;;;48.47;31.45;;;13.10;64.10;;;;;;4945401;28;20055;-49
2023/04/17 00:20:42;;;;;;;48.38;29.67;;;13.10;64.20;;;;;;4945134;28;20086;-51
2023/04/17 00:23:11;;;;;;;53.88;31.48;;;13.10;64.20;;;;;;4946522;28;20055;-47
2023/04/17 00:25:38;;;;;;;51.47;31.10;;;13.00;64.40;;;;;;4945362;28;20070;-46
2023/04/17 00:28:05;;;;;;;47.95;30.27;;;13.00;64.50;;;;;;4944768;28;20059;-47
2023/04/17 00:30:32;;;;;;;48.80;30.63;;;13.10;64.80;;;;;;4944828;28;20067;-47
2023/04/17 00:33:00;;;;;;;42.90;27.38;;;13.00;64.80;;;;;;4944056;28;20055;-47
2023/04/17 00:35:27;;;;;;;50.33;30.05;;;13.00;64.90;;;;;;4944537;28;20059;-49
2023/04/17 00:37:54;;;;;;;48.67;29.27;;;13.00;65.10;;;;;;4945363;28;20059;-47
2023/04/17 00:40:22;;;;;;;50.58;28.60;;;13.00;65.00;;;;;;4946019;28;20054;-47
2023/04/17 00:42:51;;;;;;;46.80;29.42;;;13.00;65.10;;;;;;4945930;28;20515;-50
2023/04/17 00:45:20;;;;;;;47.85;28.40;;;13.00;65.00;;;;;;4945160;28;20051;-53
2023/04/17 00:47:48;;;;;;;49.85;29.58;;;13.00;65.00;;;;;;4945152;28;20415;-47
2023/04/17 00:50:15;;;;;;;44.55;28.02;;;13.00;65.00;;;;;;4944454;28;20059;-49
2023/04/17 00:52:44;;;;;;;49.58;29.30;;;13.00;65.00;;;;;;4946189;28;20047;-47
2023/04/17 00:55:12;;;;;;;57.03;31.52;;;13.00;65.00;;;;;;4944483;28;20400;-54
2023/04/17 00:57:41;;;;;;;54.15;31.08;;;13.00;65.10;;;;;;4944628;28;20062;-51
2023/04/17 01:00:17;;;;;;;49.85;31.30;;;13.00;65.20;;;;;;4944996;28;20047;-53
2023/04/17 01:02:44;;;;;;;53.92;32.20;;;13.00;65.30;;;;;;4953312;23;20066;-87
2023/04/17 01:05:11;;;;;;;59.42;34.83;;;13.00;65.40;;;;;;4963763;28;20066;-86
2023/04/17 01:07:40;;;;;;;66.65;37.20;;;13.00;65.60;;;;;;4962137;28;20410;-86
2023/04/17 01:10:08;;;;;;;61.90;36.45;;;12.90;65.70;;;;;;4965695;28;20489;-85
2023/04/17 01:12:35;;;;;;;59.75;34.30;;;12.90;65.80;;;;;;4963207;28;20050;-84
2023/04/17 01:15:05;;;;;;;61.25;34.08;;;12.90;65.80;;;;;;4968414;28;20520;-88
2023/04/17 01:17:32;;;;;;;56.25;35.88;;;13.00;66.10;;;;;;4962824;28;20054;-85
2023/04/17 01:20:00;;;;;;;67.68;36.45;;;12.90;66.00;;;;;;4962692;28;20066;-85
2023/04/17 01:22:27;;;;;;;63.15;35.55;;;12.90;66.10;;;;;;4963274;28;20486;-85
2023/04/17 01:24:55;;;;;;;70.63;37.70;;;12.90;66.20;;;;;;4962811;28;20059;-88
2023/04/17 01:27:23;;;;;;;65.72;37.20;;;12.90;66.30;;;;;;4964152;28;20050;-85
2023/04/17 01:29:51;;;;;;;63.35;35.85;;;12.90;66.30;;;;;;4964000;28;20549;-85
2023/04/17 01:32:18;;;;;;;63.60;38.00;;;12.90;66.30;;;;;;4962908;28;20066;-85
2023/04/17 01:34:45;;;;;;;53.50;34.15;;;12.90;66.40;;;;;;4961102;28;20051;-85
2023/04/17 01:37:12;;;;;;;67.25;39.70;;;12.90;66.40;;;;;;4963389;28;20055;-86
2023/04/17 01:39:40;;;;;;;61.33;36.05;;;12.90;66.50;;;;;;4965055;28;20057;-86
2023/04/17 01:42:09;;;;;;;67.35;38.47;;;12.90;66.40;;;;;;4964348;28;20054;-85
2023/04/17 01:44:37;;;;;;;57.47;36.00;;;12.90;67.20;;;;;;4963688;28;20062;-85
2023/04/17 01:47:05;;;;;;;58.33;36.17;;;13.00;66.50;;;;;;4963581;28;20069;-86
2023/04/17 01:49:32;;;;;;;61.08;37.50;;;12.90;66.40;;;;;;4962027;28;20051;-88
2023/04/17 01:52:00;;;;;;;65.65;37.58;;;13.00;66.50;;;;;;4962378;28;20418;-85
2023/04/17 01:54:27;;;;;;;59.72;35.85;;;12.90;66.40;;;;;;4962547;28;20058;-86
2023/04/17 01:56:55;;;;;;;62.25;37.38;;;13.00;66.40;;;;;;4968937;28;20063;-85
2023/04/17 01:59:24;;;;;;;72.38;40.53;;;13.00;66.30;;;;;;4963249;28;20398;-88
2023/04/17 02:01:52;;;;;;;78.88;43.03;;;13.00;66.40;;;;;;4964439;28;20055;-85
2023/04/17 02:04:19;;;;;;;73.40;41.90;;;13.00;66.30;;;;;;4963019;28;20061;-85
2023/04/17 02:06:46;;;;;;;68.30;39.85;;;13.00;66.30;;;;;;4961887;28;20059;-85
2023/04/17 02:09:14;;;;;;;61.05;36.80;;;13.00;66.30;;;;;;4962906;28;20058;-85
2023/04/17 02:11:41;;;;;;;64.88;39.45;;;13.00;66.20;;;;;;4962433;28;20062;-84
2023/04/17 02:14:09;;;;;;;68.00;39.17;;;13.00;66.30;;;;;;4963504;28;20549;-84
2023/04/17 02:16:38;;;;;;;71.43;40.55;;;13.00;66.30;;;;;;4967930;28;20055;-84
2023/04/17 02:19:06;;;;;;;70.75;40.67;;;13.00;66.30;;;;;;4962663;28;20050;-85
2023/04/17 02:21:33;;;;;;;70.75;41.03;;;13.00;66.20;;;;;;4966687;28;20055;-86
2023/04/17 02:24:00;;;;;;;68.22;38.97;;;13.00;66.20;;;;;;4965748;28;20053;-85
2023/04/17 02:26:28;;;;;;;56.53;36.30;;;13.00;66.00;;;;;;4966952;28;20058;-87
2023/04/17 02:28:55;;;;;;;53.40;34.58;;;13.00;65.90;;;;;;4965810;28;20357;-87
2023/04/17 02:31:23;;;;;;;51.20;33.50;;;13.00;65.90;;;;;;4965878;28;20051;-86
2023/04/17 02:33:51;;;;;;;52.13;31.98;;;13.00;65.90;;;;;;4965633;28;20066;-85
2023/04/17 02:36:19;;;;;;;60.75;36.97;;;13.00;66.00;;;;;;4968072;28;20055;-85
2023/04/17 02:38:46;;;;;;;60.55;35.72;;;13.00;66.00;;;;;;4966598;28;20398;-85
2023/04/17 02:41:13;;;;;;;63.33;37.83;;;13.00;66.00;;;;;;4966272;28;20422;-86
2023/04/17 02:43:40;;;;;;;53.97;35.75;;;13.00;65.90;;;;;;4952815;28;20046;-85
2023/04/17 02:46:08;;;;;;;64.82;37.70;;;13.00;66.60;;;;;;4966471;28;20410;-84
2023/04/17 02:48:35;;;;;;;63.90;38.83;;;13.00;65.90;;;;;;4965090;28;20379;-85
2023/04/17 02:51:04;;;;;;;65.55;39.92;;;13.00;65.90;;;;;;4965047;28;20055;-85
2023/04/17 02:53:31;;;;;;;66.32;40.50;;;13.00;65.80;;;;;;4967538;28;21537;-92
2023/04/17 02:55:58;;;;;;;63.10;38.50;;;13.00;65.80;;;;;;4967621;28;20047;-92
2023/04/17 02:58:26;;;;;;;59.28;37.65;;;13.00;65.80;;;;;;4966310;28;20050;-91
2023/04/17 03:01:01;;;;;;;64.93;37.47;;;13.00;65.70;;;;;;4965051;28;20901;-87
2023/04/17 03:03:29;;;;;;;65.45;40.83;;;13.00;65.80;;;;;;4965397;28;20051;-85
2023/04/17 03:05:57;;;;;;;64.00;39.72;;;13.00;65.80;;;;;;4965318;28;20051;-86
2023/04/17 03:08:28;;;;;;;67.10;39.88;;;13.00;65.80;;;;;;4971568;28;20046;-85
2023/04/17 03:10:55;;;;;;;75.22;42.95;;;13.10;65.80;;;;;;4966924;28;20514;-85
2023/04/17 03:13:23;;;;;;;61.22;38.45;;;13.00;65.60;;;;;;4965084;28;20142;-89
2023/04/17 03:15:50;;;;;;;68.63;41.72;;;13.00;65.60;;;;;;4966987;28;20054;-87
2023/04/17 03:18:17;;;;;;;65.85;39.22;;;13.00;65.70;;;;;;4966040;28;20062;-87
2023/04/17 03:20:45;;;;;;;73.82;41.25;;;13.00;65.70;;;;;;4964752;28;20070;-85
2023/04/17 03:23:12;;;;;;;75.97;43.10;;;13.00;65.80;;;;;;4965770;28;20599;-84
2023/04/17 03:25:41;;;;;;;64.15;41.08;;;13.00;65.80;;;;;;4966365;28;20422;-84
2023/04/17 03:28:08;;;;;;;63.65;38.40;;;13.00;66.60;;;;;;4965882;28;20070;-86
2023/04/17 03:30:35;;;;;;;71.28;42.78;;;13.00;65.80;;;;;;4964357;28;20056;-86
2023/04/17 03:33:03;;;;;;;67.32;40.60;;;13.00;66.00;;;;;;4964092;28;20054;-85
2023/04/17 03:35:30;;;;;;;66.75;40.53;;;12.90;65.90;;;;;;4963518;28;20058;-85
2023/04/17 03:37:57;;;;;;;70.60;41.50;;;12.90;65.90;;;;;;4965364;28;20054;-85
2023/04/17 03:40:24;;;;;;;66.75;39.42;;;12.90;65.90;;;;;;4965499;28;20058;-85
2023/04/17 03:42:53;;;;;;;61.25;38.17;;;12.90;66.00;;;;;;4965648;28;20058;-85
2023/04/17 03:45:20;;;;;;;67.50;41.42;;;12.90;66.10;;;;;;4965180;28;20054;-85
2023/04/17 03:47:48;;;;;;;61.30;40.13;;;12.90;66.10;;;;;;4970518;28;20042;-89
2023/04/17 03:50:16;;;;;;;64.60;38.10;;;12.90;66.00;;;;;;4964243;28;20055;-88
2023/04/17 03:52:43;;;;;;;68.90;40.88;;;12.90;65.90;;;;;;4964188;28;20494;-85
2023/04/17 03:55:11;;;;;;;70.45;41.78;;;13.00;66.00;;;;;;4965574;28;20058;-87
2023/04/17 03:57:39;;;;;;;68.53;41.55;;;12.90;65.90;;;;;;4965455;28;20055;-85
2023/04/17 04:00:10;;;;;;;62.80;38.97;;;12.90;65.80;;;;;;4965793;28;20051;-89
2023/04/17 04:02:37;;;;;;;57.97;37.33;;;12.90;65.90;;;;;;4964394;28;20054;-86
2023/04/17 04:05:05;;;;;;;59.35;35.85;;;12.90;65.90;;;;;;4968955;28;20587;-86
2023/04/17 04:07:32;;;;;;;60.47;39.55;;;12.90;65.90;;;;;;4964008;28;20062;-85
2023/04/17 04:10:00;;;;;;;56.28;36.72;;;12.90;66.00;;;;;;4963784;28;20059;-86
2023/04/17 04:12:27;;;;;;;73.25;42.88;;;12.90;65.90;;;;;;4963386;28;20482;-84
2023/04/17 04:14:55;;;;;;;71.22;41.90;;;12.90;65.80;;;;;;4963178;28;20574;-84
2023/04/17 04:17:24;;;;;;;55.88;36.78;;;12.90;65.70;;;;;;4964950;28;20057;-87
2023/04/17 04:19:51;;;;;;;70.97;41.15;;;12.90;65.70;;;;;;4964970;28;20055;-86
2023/04/17 04:22:20;;;;;;;61.88;39.03;;;12.90;65.70;;;;;;4964985;28;20057;-86
2023/04/17 04:24:47;;;;;;;56.42;36.67;;;12.90;65.60;;;;;;4964318;28;20775;-88
2023/04/17 04:27:16;;;;;;;62.22;39.70;;;12.90;65.60;;;;;;4962893;28;20055;-87
2023/04/17 04:29:44;;;;;;;61.80;38.65;;;12.90;65.60;;;;;;4964118;28;20063;-85
2023/04/17 04:32:12;;;;;;;66.78;37.22;;;12.90;65.70;;;;;;4963703;28;20077;-85
2023/04/17 04:34:43;;;;;;;63.42;39.22;;;12.90;65.60;;;;;;4964605;28;20062;-85
2023/04/17 04:37:14;;;;;;;62.42;40.63;;;12.90;66.40;;;;;;4963421;28;20055;-86
2023/04/17 04:39:42;;;;;;;64.78;40.10;;;12.90;65.70;;;;;;4963411;28;20069;-85
2023/04/17 04:42:09;;;;;;;67.80;40.53;;;12.90;65.70;;;;;;4963431;28;20050;-84
2023/04/17 04:44:37;;;;;;;63.08;38.67;;;12.80;66.40;;;;;;4970072;28;20046;-85
2023/04/17 04:47:04;;;;;;;56.38;36.40;;;12.90;65.80;;;;;;4961981;28;20051;-85
2023/04/17 04:49:37;;;;;;;58.10;36.75;;;12.90;65.80;;;;;;4962881;28;20062;-86
2023/04/17 04:52:09;;;;;;;59.63;37.57;;;12.90;65.80;;;;;;4946268;28;20059;-85
2023/04/17 04:54:38;;;;;;;64.28;39.15;;;12.90;65.80;;;;;;4962674;28;21040;-85
2023/04/17 04:57:09;;;;;;;60.72;39.13;;;12.90;65.80;;;;;;4963394;28;20059;-85
2023/04/17 04:59:37;;;;;;;61.92;38.38;;;12.90;66.40;;;;;;4963398;28;20070;-85
2023/04/17 05:02:05;;;;;;;59.72;38.05;;;12.90;65.70;;;;;;4963517;28;20054;-87
2023/04/17 05:04:33;;;;;;;61.92;38.28;;;12.90;65.70;;;;;;4962358;28;20160;-84
2023/04/17 05:07:03;;;;;;;65.60;39.58;;;12.90;65.60;;;;;;4963163;28;20050;-85
2023/04/17 05:09:34;;;;;;;59.72;38.75;;;12.90;65.70;;;;;;4964822;28;20770;-87
2023/04/17 05:12:01;;;;;;;59.60;37.75;;;12.90;65.70;;;;;;4964791;28;20062;-87
2023/04/17 05:14:29;;;;;;;61.92;39.83;;;12.90;65.70;;;;;;4963405;28;20054;-85
2023/04/17 05:16:56;;;;;;;63.47;39.38;;;12.90;65.70;;;;;;4963050;28;20430;-84
2023/04/17 05:19:23;;;;;;;56.67;36.03;;;12.90;65.60;;;;;;4968383;28;20047;-86
2023/04/17 05:21:51;;;;;;;57.88;37.17;;;12.90;65.60;;;;;;4961960;28;20050;-88
2023/04/17 05:24:18;;;;;;;62.72;39.40;;;12.90;65.70;;;;;;4962317;28;20379;-88
2023/04/17 05:26:47;;;;;;;66.55;41.35;;;12.80;65.70;;;;;;4964937;28;20490;-85
2023/04/17 05:29:14;;;;;;;59.67;38.17;;;12.80;65.70;;;;;;4963685;28;20059;-85
2023/04/17 05:31:41;;;;;;;55.40;36.22;;;12.80;65.60;;;;;;4963364;28;20529;-85
2023/04/17 05:34:09;;;;;;;54.90;35.60;;;12.80;65.70;;;;;;4968441;28;20059;-88
2023/04/17 05:36:36;;;;;;;61.10;37.83;;;12.80;65.90;;;;;;4961990;28;20051;-86
2023/04/17 05:39:03;;;;;;;61.72;39.70;;;12.80;66.00;;;;;;4962006;28;20054;-89
2023/04/17 05:41:31;;;;;;;55.58;36.28;;;12.80;66.10;;;;;;4960583;28;20495;-87
2023/04/17 05:44:01;;;;;;;68.45;39.50;;;12.80;66.00;;;;;;4963256;28;20364;-87
2023/04/17 05:46:30;;;;;;;60.00;38.58;;;12.80;66.10;;;;;;4963009;28;20479;-87
2023/04/17 05:48:57;;;;;;;61.05;39.33;;;12.80;66.00;;;;;;4962502;28;20074;-88
2023/04/17 05:51:25;;;;;;;63.05;39.35;;;12.80;66.00;;;;;;4962116;28;20054;-87
2023/04/17 05:53:52;;;;;;;65.18;40.42;;;12.80;66.00;;;;;;4962504;28;20066;-88
2023/04/17 05:56:19;;;;;;;57.20;37.08;;;12.70;66.00;;;;;;4963449;28;20062;-88
2023/04/17 05:58:47;;;;;;;67.78;41.80;;;12.70;66.10;;;;;;4965251;28;20059;-86
2023/04/17 06:01:16;;;;;;;65.05;40.70;;;12.70;66.20;;;;;;4966326;28;20062;-88
2023/04/17 06:03:44;;;;;;;59.20;37.25;;;12.60;66.20;;;;;;4964851;28;20058;-86
2023/04/17 06:06:11;;;;;;;62.15;36.40;;;12.60;66.20;;;;;;4966284;28;20077;-86
2023/04/17 06:08:39;;;;;;;60.17;37.65;;;12.60;66.20;;;;;;4966415;28;20072;-88
2023/04/17 06:11:07;;;;;;;55.05;35.70;;;12.60;66.20;;;;;;4966980;28;20717;-87
2023/04/17 06:13:34;;;;;;;54.42;34.40;;;12.60;66.30;;;;;;4966257;28;20059;-86
2023/04/17 06:16:01;;;;;;;53.47;34.60;;;12.50;66.40;;;;;;4968225;28;20047;-86
2023/04/17 06:18:30;;;;;;;56.38;36.17;;;12.50;66.20;;;;;;4965892;28;20062;-88
2023/04/17 06:20:57;;;;;;;45.45;30.25;;;12.50;66.40;;;;;;4966258;28;20062;-87
2023/04/17 06:23:25;;;;;;;50.60;31.90;;;12.50;66.40;;;;;;4966710;28;20058;-86
2023/04/17 06:25:52;;;;;;;50.25;32.30;;;12.60;66.50;;;;;;4965985;28;20050;-88
2023/04/17 06:28:19;;;;;;;51.08;33.58;;;12.60;66.40;;;;;;4966531;28;20518;-86
2023/04/17 06:30:47;;;;;;;43.55;29.45;;;12.60;66.30;;;;;;4967004;28;20396;-86
2023/04/17 06:33:14;;;;;;;49.72;33.22;;;12.60;66.10;;;;;;4966413;28;20058;-86
2023/04/17 06:35:43;;;;;;;53.08;33.65;;;12.60;66.10;;;;;;4965872;28;20054;-86
2023/04/17 06:38:10;;;;;;;51.13;33.88;;;12.70;66.00;;;;;;4966104;28;20050;-86
2023/04/17 06:40:38;;;;;;;54.67;34.75;;;12.70;65.90;;;;;;4971869;28;20061;-85
2023/04/17 06:43:05;;;;;;;52.95;32.33;;;12.70;65.60;;;;;;4964787;28;20069;-85
2023/04/17 06:45:41;;;;;;;41.78;28.17;;;12.70;65.50;;;;;;4963671;28;20055;-83
2023/04/17 06:48:08;;;;;;;40.72;27.75;;;12.70;65.20;;;;;;4962638;28;20058;-89
2023/04/17 06:50:36;;;;;;;47.35;28.95;;;12.70;64.80;;;;;;4970369;28;20545;-89
2023/04/17 06:53:04;;;;;;;37.60;25.95;;;12.70;64.70;;;;;;4967587;28;20046;-87
2023/04/17 06:55:32;;;;;;;44.55;28.08;;;12.70;64.50;;;;;;4966158;28;20402;-86
2023/04/17 06:57:59;;;;;;;45.03;27.52;;;12.70;64.90;;;;;;4966894;28;20054;-85
2023/04/17 07:00:28;;;;;;;41.83;27.02;;;12.80;64.30;;;;;;4964281;28;20054;-89
2023/04/17 07:02:56;;;;;;;40.60;25.30;;;12.70;63.80;;;;;;4964937;28;20054;-86
2023/04/17 07:05:24;;;;;;;37.70;25.80;;;12.80;63.70;;;;;;4964031;28;20050;-87
2023/04/17 07:07:51;;;;;;;36.90;23.63;;;12.70;63.50;;;;;;4965498;28;20479;-88
2023/04/17 07:10:20;;;;;;;37.35;25.52;;;12.70;63.30;;;;;;4964430;28;20059;-87
2023/04/17 07:12:48;;;;;;;38.75;24.17;;;12.70;63.10;;;;;;4965049;28;20054;-89
2023/04/17 07:15:16;;;;;;;34.90;23.17;;;12.70;63.00;;;;;;4965180;28;20061;-88
2023/04/17 07:17:43;;;;;;;38.33;24.60;;;12.70;62.70;;;;;;4965971;28;20059;-85
2023/04/17 07:20:11;;;;;;;39.17;25.23;;;12.70;62.70;;;;;;4963069;28;20061;-85
2023/04/17 08:01:10;;;;;;;31.38;20.70;;;13.00;61.00;;;;;;4982276;28;20497;-86
2023/04/17 08:03:39;;;;;;;35.20;22.05;;;13.00;60.20;;;;;;4964003;28;20054;-85
2023/04/17 08:06:06;;;;;;;28.63;20.30;;;13.10;60.30;;;;;;4963655;28;20054;-88
2023/04/17 08:08:34;;;;;;;29.65;20.58;;;13.10;60.10;;;;;;4964991;28;20069;-86
2023/04/17 08:11:01;;;;;;;28.52;19.33;;;13.10;59.90;;;;;;4963597;28;20418;-87
2023/04/17 08:13:30;;;;;;;27.35;19.42;;;13.10;59.90;;;;;;4963619;28;20486;-86
2023/04/17 08:15:58;;;;;;;30.65;19.58;;;13.20;59.80;;;;;;4964444;28;20059;-84
2023/04/17 08:18:27;;;;;;;32.80;20.80;;;13.20;60.00;;;;;;4963084;28;20364;-88
2023/04/17 08:20:54;;;;;;;29.30;20.27;;;13.30;60.10;;;;;;4964667;28;20050;-86
2023/04/17 08:23:21;;;;;;;33.40;21.13;;;13.30;60.10;;;;;;4963897;28;20462;-85
2023/04/17 08:25:49;;;;;;;31.50;19.75;;;13.40;60.20;;;;;;4964883;28;20059;-85
2023/04/17 08:28:16;;;;;;;31.60;20.35;;;13.30;59.90;;;;;;4964321;28;20058;-85
2023/04/17 08:30:43;;;;;;;29.30;20.05;;;13.40;59.30;;;;;;4968155;28;20051;-85
2023/04/17 08:33:12;;;;;;;24.25;17.23;;;13.50;59.50;;;;;;4965518;28;20079;-85
2023/04/17 08:35:40;;;;;;;32.00;20.20;;;13.50;59.90;;;;;;4962746;28;20388;-85
2023/04/17 08:38:09;;;;;;;26.88;17.48;;;13.60;58.90;;;;;;4963734;28;20054;-85
2023/04/17 08:40:40;;;;;;;25.95;18.10;;;13.60;58.50;;;;;;4963060;28;20065;-88
2023/04/17 08:43:14;;;;;;;25.20;16.83;;;13.70;57.80;;;;;;4964978;28;20065;-86
2023/04/17 08:45:48;;;;;;;27.13;17.13;;;13.70;57.50;;;;;;4963056;28;20046;-86
2023/04/17 08:48:16;;;;;;;25.35;16.70;;;13.70;57.50;;;;;;4963144;28;20050;-86
2023/04/17 08:50:47;;;;;;;24.58;17.00;;;13.80;57.70;;;;;;4964182;28;20479;-85
2023/04/17 08:53:15;;;;;;;23.80;15.45;;;13.80;57.50;;;;;;4963951;28;20086;-88
2023/04/17 08:55:43;;;;;;;24.35;15.73;;;13.90;57.00;;;;;;4964193;28;20058;-87
2023/04/17 08:58:11;;;;;;;20.23;14.90;;;13.90;56.80;;;;;;4963291;28;20422;-88
2023/04/17 09:00:40;;;;;;;24.42;15.65;;;14.00;57.00;;;;;;4963662;28;20077;-86
2023/04/17 09:03:09;;;;;;;22.90;14.20;;;14.00;56.30;;;;;;4962576;28;20058;-86
2023/04/17 09:05:38;;;;;;;23.35;15.52;;;14.10;55.80;;;;;;4962125;28;20114;-89
2023/04/17 09:08:10;;;;;;;23.88;15.35;;;14.10;55.70;;;;;;4963647;28;20059;-86
2023/04/17 09:10:38;;;;;;;28.48;15.70;;;14.10;55.80;;;;;;4963103;28;20058;-89
2023/04/17 09:13:06;;;;;;;25.85;14.50;;;14.10;56.20;;;;;;4964373;28;20062;-85
2023/04/17 09:15:34;;;;;;;18.67;11.82;;;14.20;56.10;;;;;;4963206;28;20066;-86
2023/04/17 09:18:02;;;;;;;17.65;11.55;;;14.30;56.60;;;;;;4963395;28;20069;-88
2023/04/17 09:20:29;;;;;;;21.95;11.55;;;14.30;57.00;;;;;;4961612;28;20062;-86
2023/04/17 09:23:01;;;;;;;28.50;15.02;;;14.50;57.00;;;;;;4964741;28;20510;-88
2023/04/17 09:25:30;;;;;;;22.95;14.98;;;14.50;56.00;;;;;;4969063;28;20054;-86
2023/04/17 09:28:12;;;;;;;27.48;15.27;;;14.50;54.50;;;;;;4962976;28;20065;-89
2023/04/17 09:30:40;;;;;;;22.77;14.38;;;14.60;54.30;;;;;;4962038;28;20426;-86
2023/04/17 09:33:08;;;;;;;23.67;14.02;;;14.70;55.30;;;;;;4962478;28;20069;-89
2023/04/17 09:35:37;;;;;;;20.63;12.93;;;14.70;54.10;;;;;;4961290;28;20070;-85
2023/04/17 09:38:05;;;;;;;21.50;12.63;;;14.80;54.00;;;;;;4963107;28;21153;-85
2023/04/17 09:40:39;;;;;;;22.42;14.07;;;14.70;53.00;;;;;;4964270;28;20380;-85
2023/04/17 09:43:07;;;;;;;;;;;14.80;53.20;;;;;;4963164;28;20065;-88
2023/04/17 09:45:38;;;;;;;15.85;10.98;;;14.80;53.90;;;;;;4963332;28;19929;-86
2023/04/17 09:48:07;;;;;;;15.23;10.27;;;14.90;54.40;;;;;;4962964;28;20063;-86
2023/04/17 09:50:36;;;;;;;19.75;11.40;;;14.90;54.70;;;;;;4961982;28;20067;-86
2023/04/17 09:53:04;;;;;;;21.27;13.05;;;15.10;54.80;;;;;;4962974;28;20055;-86
2023/04/17 09:55:33;;;;;;;18.05;12.15;;;15.10;53.50;;;;;;4962233;28;20050;-87
2023/04/17 09:58:04;;;;;;;19.95;12.00;;;15.10;53.50;;;;;;4962121;28;20065;-83
2023/04/17 10:00:31;;;;;;;18.17;12.00;;;15.20;52.60;;;;;;4962313;28;20053;-83
2023/04/17 10:03:26;;;;;;;20.67;12.13;;;15.20;51.70;;;;;;4960771;28;21563;-87
2023/04/17 10:05:53;;;;;;;15.82;10.75;;;15.20;52.20;;;;;;4961053;28;20061;-91
2023/04/17 10:08:21;;;;;;;13.02;9.23;;;15.20;52.40;;;;;;4961634;28;20514;-87
2023/04/17 10:10:49;;;;;;;12.93;9.07;;;15.20;52.40;;;;;;4963083;28;20055;-86
2023/04/17 10:13:20;;;;;;;17.13;9.07;;;15.20;52.90;;;;;;4961698;28;20058;-85
2023/04/17 10:15:48;;;;;;;11.98;8.10;;;15.30;53.20;;;;;;4963004;28;20354;-85
2023/04/17 10:18:26;;;;;;;13.57;9.15;;;15.40;53.50;;;;;;4960302;28;20055;-89
2023/04/17 10:20:54;;;;;;;15.32;8.95;;;15.40;53.70;;;;;;4960089;28;20046;-88
2023/04/17 10:23:30;;;;;;;10.43;7.20;;;15.50;53.90;;;;;;4963179;28;20057;-85
2023/04/17 10:26:36;;;;;;;10.15;7.15;;;15.60;53.50;;;;;;4958345;28;20059;-89
2023/04/17 10:29:05;;;;;;;12.73;7.93;;;15.70;53.40;;;;;;4963293;28;20047;-88
2023/04/17 10:32:24;;;;;;;12.25;8.20;;;15.70;51.60;;;;;;4960760;28;20151;-85
2023/04/17 10:34:52;;;;;;;15.52;7.15;;;15.80;49.20;;;;;;4961382;28;20047;-88
2023/04/17 10:37:21;;;;;;;9.85;6.35;;;15.90;48.00;;;;;;4960899;28;20057;-85
2023/04/17 10:39:59;;;;;;;10.05;6.82;;;15.90;49.20;;;;;;4961399;28;20051;-86
2023/04/17 10:42:29;;;;;;;10.50;6.78;;;15.90;49.00;;;;;;4961270;28;20062;-86
2023/04/17 10:45:02;;;;;;;8.40;5.53;;;15.90;48.70;;;;;;4963486;28;20808;-86
2023/04/17 10:47:33;;;;;;;9.88;6.25;;;16.00;49.10;;;;;;4964176;28;20479;-86
2023/04/17 10:50:03;;;;;;;10.07;5.70;;;16.00;48.50;;;;;;4964913;28;20506;-85
2023/04/17 10:52:38;;;;;;;9.73;6.07;;;16.10;49.30;;;;;;4964622;28;20062;-87
2023/04/17 10:55:07;;;;;;;9.65;5.93;;;16.20;49.20;;;;;;4964381;28;20108;-85
2023/04/17 10:57:55;;;;;;;10.80;6.53;;;16.20;49.60;;;;;;4965014;28;20058;-90
2023/04/17 11:00:32;;;;;;;14.75;7.15;;;16.20;48.20;;;;;;4964063;28;20065;-86
2023/04/17 11:03:02;;;;;;;14.88;7.18;;;16.20;47.90;;;;;;4964730;28;20058;-86
2023/04/17 11:05:30;;;;;;;14.30;6.88;;;16.20;44.30;;;;;;4964312;28;20510;-85
2023/04/17 11:07:58;;;;;;;10.75;6.60;;;16.20;46.70;;;;;;4964257;28;20061;-87
2023/04/17 11:10:26;;;;;;;9.25;5.93;;;16.20;46.30;;;;;;4966318;28;20065;-85
2023/04/17 11:12:55;;;;;;;11.02;6.70;;;16.20;46.00;;;;;;4965863;28;20065;-85
2023/04/17 11:15:28;;;;;;;9.50;6.43;;;16.20;46.40;;;;;;4965673;28;20077;-86
2023/04/17 11:17:56;;;;;;;10.20;6.28;;;16.20;47.10;;;;;;4964721;28;20061;-85
2023/04/17 11:20:25;;;;;;;8.30;5.32;;;16.30;47.50;;;;;;4964057;28;20054;-86
2023/04/17 11:22:53;;;;;;;7.80;5.25;;;16.30;47.80;;;;;;4968028;28;20066;-87
2023/04/17 11:25:22;;;;;;;11.38;5.60;;;16.30;48.40;;;;;;4964399;28;20070;-90
2023/04/17 11:27:56;;;;;;;8.00;5.53;;;16.40;48.60;;;;;;4965438;28;20440;-85
2023/04/17 11:30:33;;;;;;;9.13;5.72;;;16.40;48.30;;;;;;4962297;28;20953;-87
2023/04/17 11:36:26;;;;;;;8.85;5.13;;;16.60;48.40;;;;;;5001076;28;20037;-84
2023/04/17 11:45:45;;;;;;;9.18;6.40;;;16.80;48.20;;;;;;4917296;29;20055;-83
2023/04/17 11:48:21;;;;;;;9.70;6.05;;;16.80;46.70;;;;;;4984568;28;20051;-86
2023/04/17 11:51:00;;;;;;;11.27;5.97;;;16.90;47.40;;;;;;4987472;28;20065;-84
2023/04/17 11:53:50;;;;;;;10.30;6.30;;;16.90;46.70;;;;;;4973718;28;20096;-83
2023/04/17 11:56:27;;;;;;;7.47;5.80;;;16.90;47.20;;;;;;4978648;28;20054;-84
2023/04/17 11:59:14;;;;;;;8.88;6.18;;;16.90;47.10;;;;;;4981942;28;20066;-84
2023/04/17 12:01:53;;;;;;;13.10;7.53;;;16.90;46.20;;;;;;4976224;28;20550;-83
2023/04/17 12:04:21;;;;;;;6.97;5.35;;;16.90;45.20;;;;;;4963788;28;20062;-86
2023/04/17 12:06:49;;;;;;;8.65;5.78;;;16.90;46.70;;;;;;4964406;28;20051;-85
2023/04/17 12:09:20;;;;;;;12.65;5.60;;;16.80;46.90;;;;;;4965877;28;20513;-85
2023/04/17 12:11:47;;;;;;;14.82;6.07;;;16.90;46.40;;;;;;4969486;28;20495;-84
2023/04/17 12:14:15;;;;;;;8.27;5.55;;;16.80;46.50;;;;;;4964666;28;20422;-84
2023/04/17 12:16:46;;;;;;;7.80;5.85;;;16.90;46.70;;;;;;4970479;28;20060;-84
2023/04/17 12:19:15;;;;;;;8.13;5.50;;;16.90;46.80;;;;;;4962257;28;20479;-85
2023/04/17 12:21:43;;;;;;;8.48;5.47;;;16.80;47.00;;;;;;4963376;28;20054;-84
2023/04/17 12:24:10;;;;;;;10.32;6.13;;;16.80;46.60;;;;;;4964391;28;20407;-85
2023/04/17 12:26:45;;;;;;;8.70;5.68;;;16.80;46.20;;;;;;4963091;28;20058;-87
2023/04/17 12:29:12;;;;;;;7.00;5.40;;;16.80;46.50;;;;;;4963911;28;20051;-84
2023/04/17 12:31:39;;;;;;;12.77;5.97;;;16.90;46.70;;;;;;4966592;28;20059;-91
2023/04/17 12:34:08;;;;;;;8.95;5.38;;;16.80;46.30;;;;;;4962103;28;20058;-88
2023/04/17 12:36:35;;;;;;;9.88;5.35;;;16.80;47.20;;;;;;4961087;28;20105;-90
2023/04/17 12:39:03;;;;;;;9.60;5.93;;;16.80;46.70;;;;;;4963449;28;20054;-90
2023/04/17 12:41:30;;;;;;;8.38;5.50;;;16.90;47.00;;;;;;4964884;28;20058;-90
2023/04/17 12:44:00;;;;;;;7.57;5.18;;;16.90;46.80;;;;;;4969785;28;20268;-92
2023/04/17 12:46:27;;;;;;;11.10;6.45;;;16.90;46.90;;;;;;4963761;28;20418;-90
2023/04/17 12:48:57;;;;;;;8.18;5.15;;;16.90;46.50;;;;;;4963100;28;20047;-91
2023/04/17 12:51:26;;;;;;;8.63;4.90;;;16.90;46.60;;;;;;4963333;28;20055;-89
2023/04/17 12:53:54;;;;;;;9.07;4.82;;;16.90;46.70;;;;;;4964154;28;20077;-87
2023/04/17 12:56:21;;;;;;;10.15;5.35;;;16.90;46.50;;;;;;4964279;28;20526;-87
2023/04/17 12:58:48;;;;;;;8.38;4.47;;;16.90;46.20;;;;;;4964026;28;20051;-89
2023/04/17 13:01:16;;;;;;;6.88;4.18;;;16.90;45.70;;;;;;4968436;28;20043;-90
2023/04/17 13:03:43;;;;;;;6.10;3.88;;;16.90;45.30;;;;;;4961849;28;20058;-90
2023/04/17 13:06:11;;;;;;;7.30;3.70;;;16.90;45.80;;;;;;4962813;28;20057;-90
2023/04/17 13:08:40;;;;;;;5.28;3.90;;;16.90;45.80;;;;;;4962994;28;20065;-88
2023/04/17 13:11:07;;;;;;;4.50;3.53;;;17.00;45.60;;;;;;4963471;28;20050;-87
2023/04/17 13:13:34;;;;;;;7.15;3.58;;;17.00;45.40;;;;;;4969175;28;20050;-90
2023/04/17 13:16:02;;;;;;;4.60;3.28;;;17.00;44.60;;;;;;4962969;28;20153;-91
2023/04/17 13:18:29;;;;;;;9.05;3.33;;;17.00;44.00;;;;;;4962417;28;20066;-87
2023/04/17 13:20:57;;;;;;;4.07;2.67;;;17.10;44.60;;;;;;4962254;28;20051;-91
2023/04/17 13:23:24;;;;;;;5.30;2.70;;;17.10;44.50;;;;;;4961815;28;20055;-90
2023/04/17 13:25:53;;;;;;;4.10;2.58;;;17.20;43.80;;;;;;4969821;28;20055;-91
2023/04/17 13:28:20;;;;;;;10.13;3.63;;;17.20;43.60;;;;;;4963807;28;20157;-90